createdAt,value
2022-12-31T00:01:29.732Z,55.12
2022-12-31T00:03:58.611Z,55.49
2022-12-31T00:06:33.930Z,55.43
2022-12-31T00:09:06.874Z,56.20
2022-12-31T00:11:35.898Z,55.79
2022-12-31T00:14:04.002Z,55.65
2022-12-31T00:16:41.088Z,55.55
2022-12-31T00:19:12.352Z,54.70
2022-12-31T00:21:39.794Z,54.74
2022-12-31T00:24:08.496Z,54.54
2022-12-31T00:26:36.392Z,55.88
2022-12-31T00:29:05.436Z,55.50
2022-12-31T00:31:38.082Z,56.08
2022-12-31T00:34:07.066Z,55.13
2022-12-31T00:36:38.769Z,55.67
2022-12-31T00:39:09.891Z,56.38
2022-12-31T00:41:37.942Z,56.07
2022-12-31T00:44:05.923Z,54.88
2022-12-31T00:46:33.537Z,55.49
2022-12-31T00:49:00.900Z,55.28
2022-12-31T00:51:29.026Z,54.75
2022-12-31T00:53:57.905Z,55.53
2022-12-31T00:56:30.077Z,55.60
2022-12-31T00:58:59.451Z,55.14
2022-12-31T01:01:32.328Z,54.37
2022-12-31T01:04:13.591Z,54.93
2022-12-31T01:06:43.632Z,54.65
2022-12-31T01:09:15.137Z,55.37
2022-12-31T01:11:42.870Z,54.46
2022-12-31T01:14:20.537Z,54.08
2022-12-31T01:16:52.414Z,55.38
2022-12-31T01:19:29.287Z,55.08
2022-12-31T01:21:56.955Z,53.84
2022-12-31T01:24:24.686Z,55.14
2022-12-31T01:26:52.262Z,55.45
2022-12-31T01:29:19.572Z,56.06
2022-12-31T01:31:47.180Z,56.43
2022-12-31T01:34:14.465Z,55.28
2022-12-31T01:36:41.705Z,55.28
2022-12-31T01:39:11.810Z,55.98
2022-12-31T01:41:47.186Z,56.67
2022-12-31T01:44:23.435Z,56.90
2022-12-31T01:47:04.518Z,55.19
2022-12-31T01:49:43.847Z,57.61
2022-12-31T01:52:31.801Z,57.76
2022-12-31T01:55:19.463Z,56.17
2022-12-31T01:57:52.110Z,56.35
2022-12-31T02:00:20.070Z,56.14
2022-12-31T02:02:47.523Z,56.03
2022-12-31T02:05:50.876Z,56.39
2022-12-31T02:08:18.700Z,55.90
2022-12-31T02:10:46.024Z,56.25
2022-12-31T02:13:15.166Z,55.74
2022-12-31T02:16:06.067Z,55.89
2022-12-31T02:18:57.135Z,56.58
2022-12-31T02:21:36.465Z,56.04
2022-12-31T02:24:44.888Z,56.41
2022-12-31T02:27:53.714Z,56.06
2022-12-31T02:30:24.773Z,56.37
2022-12-31T02:33:42.727Z,55.81
2022-12-31T02:36:27.848Z,56.27
2022-12-31T02:38:57.627Z,56.29
2022-12-31T02:41:44.048Z,55.06
2022-12-31T02:44:41.298Z,53.92
2022-12-31T02:47:08.466Z,53.70
2022-12-31T02:50:01.131Z,53.56
2022-12-31T02:53:20.651Z,53.08
2022-12-31T02:56:18.779Z,52.82
2022-12-31T02:59:22.973Z,52.97
2022-12-31T03:02:15.687Z,52.67
2022-12-31T03:04:54.434Z,52.73
2022-12-31T03:07:32.184Z,52.23
2022-12-31T03:10:01.265Z,52.00
2022-12-31T03:12:48.904Z,52.19
2022-12-31T03:15:37.274Z,51.85
2022-12-31T03:18:38.956Z,51.70
2022-12-31T03:21:32.290Z,52.07
2022-12-31T03:24:18.697Z,52.30
2022-12-31T03:26:45.969Z,52.50
2022-12-31T03:29:13.144Z,52.72
2022-12-31T03:31:40.504Z,53.08
2022-12-31T03:34:07.712Z,53.76
2022-12-31T03:36:34.893Z,52.86
2022-12-31T03:39:02.173Z,52.65
2022-12-31T03:41:29.415Z,52.60
2022-12-31T03:43:56.604Z,51.99
2022-12-31T03:46:23.882Z,52.16
2022-12-31T03:48:51.068Z,51.65
2022-12-31T03:51:18.307Z,51.36
2022-12-31T03:53:45.500Z,51.46
2022-12-31T03:56:12.732Z,51.11
2022-12-31T03:58:44.805Z,50.78
2022-12-31T04:01:14.537Z,49.76
2022-12-31T04:03:41.771Z,49.39
2022-12-31T04:06:09.127Z,50.20
2022-12-31T04:08:36.371Z,50.23
2022-12-31T04:11:04.600Z,50.29
2022-12-31T04:13:31.913Z,49.67
2022-12-31T04:15:59.247Z,50.57
2022-12-31T04:18:26.573Z,50.42
2022-12-31T04:20:53.842Z,51.05
2022-12-31T04:23:21.120Z,50.28
2022-12-31T04:25:48.334Z,49.43
2022-12-31T04:28:15.741Z,49.80
2022-12-31T04:30:43.940Z,50.01
2022-12-31T04:33:11.181Z,48.42
2022-12-31T04:35:38.550Z,48.29
2022-12-31T04:38:06.124Z,48.89
2022-12-31T04:40:33.433Z,49.44
2022-12-31T04:43:00.612Z,50.05
2022-12-31T04:45:27.976Z,48.87
2022-12-31T04:47:55.329Z,49.66
2022-12-31T04:50:22.526Z,49.70
2022-12-31T04:52:49.764Z,49.81
2022-12-31T04:55:17.320Z,49.69
2022-12-31T04:57:45.543Z,50.17
2022-12-31T05:00:13.720Z,50.44
2022-12-31T05:02:41.206Z,50.53
2022-12-31T05:05:09.436Z,50.07
2022-12-31T05:07:36.962Z,50.50
2022-12-31T05:10:05.415Z,50.43
2022-12-31T05:12:32.726Z,50.47
2022-12-31T05:15:00.276Z,51.27
2022-12-31T05:17:27.926Z,52.54
2022-12-31T05:19:55.593Z,53.41
2022-12-31T05:22:29.193Z,53.18
2022-12-31T05:24:59.579Z,52.97
2022-12-31T05:27:31.483Z,52.99
2022-12-31T05:30:00.022Z,53.31
2022-12-31T05:32:27.476Z,53.65
2022-12-31T05:34:54.734Z,53.49
2022-12-31T05:37:22.557Z,53.64
2022-12-31T05:39:50.576Z,53.31
2022-12-31T05:42:19.307Z,53.91
2022-12-31T05:44:47.009Z,53.70
2022-12-31T05:47:15.245Z,53.94
2022-12-31T05:49:42.701Z,54.94
2022-12-31T05:52:10.634Z,54.14
2022-12-31T05:54:37.961Z,54.94
2022-12-31T05:57:05.855Z,54.25
2022-12-31T05:59:33.516Z,54.20
2022-12-31T06:02:00.800Z,54.80
2022-12-31T06:04:28.189Z,54.69
2022-12-31T06:06:55.806Z,54.28
2022-12-31T06:09:23.889Z,55.47
2022-12-31T06:11:51.319Z,54.26
2022-12-31T06:14:18.956Z,54.44
2022-12-31T06:16:46.630Z,53.88
2022-12-31T06:19:14.207Z,53.08
2022-12-31T06:21:41.638Z,53.57
2022-12-31T06:24:09.094Z,53.53
2022-12-31T06:26:37.666Z,53.22
2022-12-31T06:29:05.551Z,52.66
2022-12-31T06:31:33.313Z,52.29
2022-12-31T06:34:00.768Z,53.10
2022-12-31T06:36:28.636Z,53.05
2022-12-31T06:38:56.130Z,53.18
2022-12-31T06:41:23.627Z,53.15
2022-12-31T06:43:51.118Z,53.03
2022-12-31T06:46:19.264Z,53.49
2022-12-31T06:48:46.780Z,53.61
2022-12-31T06:51:21.639Z,52.53
2022-12-31T06:53:51.897Z,53.70
2022-12-31T06:56:33.871Z,53.29
2022-12-31T06:59:09.976Z,53.23
2022-12-31T07:01:57.993Z,52.25
2022-12-31T07:05:42.053Z,51.87
2022-12-31T07:08:45.401Z,52.39
2022-12-31T07:11:35.986Z,53.28
2022-12-31T07:15:03.529Z,53.85
2022-12-31T07:17:49.814Z,53.99
2022-12-31T07:20:20.974Z,53.92
2022-12-31T07:22:49.197Z,53.37
2022-12-31T07:25:18.833Z,53.24
2022-12-31T07:28:41.343Z,52.83
2022-12-31T07:31:59.907Z,51.92
2022-12-31T07:35:09.647Z,52.09
2022-12-31T07:37:56.654Z,52.79
2022-12-31T07:41:09.366Z,52.74
2022-12-31T07:44:02.468Z,53.12
2022-12-31T07:46:41.306Z,52.99
2022-12-31T07:49:14.247Z,51.81
2022-12-31T07:51:43.455Z,51.95
2022-12-31T07:54:14.117Z,52.37
2022-12-31T07:56:43.403Z,51.66
2022-12-31T07:59:48.436Z,51.14
2022-12-31T08:02:56.526Z,50.51
2022-12-31T08:05:50.649Z,50.84
2022-12-31T08:08:45.206Z,50.88
2022-12-31T08:11:21.044Z,49.79
2022-12-31T08:13:50.459Z,49.41
2022-12-31T08:16:18.891Z,49.13
2022-12-31T08:18:46.968Z,50.49
2022-12-31T08:22:10.705Z,48.82
2022-12-31T08:25:19.981Z,46.98
2022-12-31T08:28:07.496Z,47.05
2022-12-31T08:31:14.639Z,46.19
2022-12-31T08:34:33.755Z,45.72
2022-12-31T08:37:13.868Z,46.38
2022-12-31T08:39:55.919Z,46.51
2022-12-31T08:43:16.216Z,46.37
2022-12-31T08:46:04.398Z,46.18
2022-12-31T08:48:50.913Z,46.45
2022-12-31T08:51:26.407Z,46.75
2022-12-31T08:53:55.450Z,45.17
2022-12-31T08:56:50.774Z,45.22
2022-12-31T08:59:56.019Z,45.04
2022-12-31T09:02:44.694Z,45.40
2022-12-31T09:05:30.985Z,45.28
2022-12-31T09:08:48.058Z,45.00
2022-12-31T09:12:30.147Z,44.91
2022-12-31T09:15:12.741Z,44.97
2022-12-31T09:17:49.856Z,44.56
2022-12-31T09:20:42.461Z,43.56
2022-12-31T09:23:13.257Z,43.22
2022-12-31T09:26:30.790Z,42.05
2022-12-31T09:29:37.609Z,41.76
2022-12-31T09:32:28.938Z,40.65
2022-12-31T09:35:34.501Z,39.69
2022-12-31T09:38:27.529Z,35.85
2022-12-31T09:41:17.154Z,33.92
2022-12-31T09:44:24.743Z,30.06
2022-12-31T09:47:23.136Z,28.51
2022-12-31T09:50:39.234Z,28.14
2022-12-31T09:53:58.700Z,25.96
2022-12-31T09:57:48.544Z,24.84
2022-12-31T10:00:49.105Z,24.14
2022-12-31T10:04:19.170Z,24.31
2022-12-31T10:07:18.547Z,23.34
2022-12-31T10:09:54.473Z,23.01
2022-12-31T10:13:09.280Z,22.46
2022-12-31T10:16:08.328Z,23.35
2022-12-31T10:19:12.710Z,22.65
2022-12-31T10:22:27.103Z,23.59
2022-12-31T10:25:14.889Z,24.16
2022-12-31T10:28:07.185Z,23.71
2022-12-31T10:30:49.245Z,23.64
2022-12-31T10:34:02.739Z,22.56
2022-12-31T10:37:19.223Z,22.47
2022-12-31T10:40:07.542Z,23.36
2022-12-31T10:43:06.004Z,22.96
2022-12-31T10:46:32.314Z,22.35
2022-12-31T10:49:40.618Z,21.68
2022-12-31T10:52:42.744Z,22.70
2022-12-31T10:56:13.289Z,23.20
2022-12-31T10:59:27.749Z,23.78
2022-12-31T11:02:37.841Z,25.35
2022-12-31T11:05:56.594Z,24.42
2022-12-31T11:09:20.413Z,23.78
2022-12-31T11:12:31.712Z,24.26
2022-12-31T11:15:54.626Z,24.42
2022-12-31T11:18:52.456Z,25.38
2022-12-31T11:22:19.625Z,25.25
2022-12-31T11:25:30.039Z,26.11
2022-12-31T11:28:47.749Z,25.83
2022-12-31T11:31:59.632Z,28.97
2022-12-31T11:35:00.734Z,24.89
2022-12-31T11:38:04.782Z,25.04
2022-12-31T11:41:28.594Z,24.88
2022-12-31T11:44:33.086Z,24.86
2022-12-31T11:47:31.839Z,26.04
2022-12-31T11:51:09.495Z,25.49
2022-12-31T11:54:21.952Z,24.85
2022-12-31T11:57:30.525Z,25.05
2022-12-31T12:00:30.500Z,25.10
2022-12-31T12:03:07.784Z,25.53
2022-12-31T12:05:38.726Z,25.70
2022-12-31T12:08:06.986Z,24.71
2022-12-31T12:11:18.822Z,24.67
2022-12-31T12:13:46.627Z,25.53
2022-12-31T12:16:15.463Z,25.36
2022-12-31T12:18:52.013Z,24.75
2022-12-31T12:21:23.198Z,24.54
2022-12-31T12:24:06.739Z,24.94
2022-12-31T12:26:42.824Z,25.94
2022-12-31T12:29:35.703Z,25.68
2022-12-31T12:32:27.011Z,26.31
2022-12-31T12:34:54.377Z,26.49
2022-12-31T12:37:24.485Z,26.67
2022-12-31T12:40:19.059Z,28.22
2022-12-31T12:42:53.129Z,27.35
2022-12-31T12:45:51.471Z,28.07
2022-12-31T12:48:41.609Z,28.20
2022-12-31T12:51:34.002Z,28.61
2022-12-31T12:54:16.309Z,28.49
2022-12-31T12:56:54.665Z,28.44
2022-12-31T12:59:59.949Z,28.50
2022-12-31T13:03:16.264Z,28.45
2022-12-31T13:06:33.665Z,29.08
2022-12-31T13:09:58.130Z,30.15
2022-12-31T13:13:25.465Z,31.04
2022-12-31T13:16:08.522Z,31.74
2022-12-31T13:19:34.319Z,32.71
2022-12-31T13:22:32.873Z,32.31
2022-12-31T13:25:15.977Z,33.27
2022-12-31T13:27:50.290Z,33.44
2022-12-31T13:30:28.652Z,33.66
2022-12-31T13:33:24.783Z,33.36
2022-12-31T13:36:00.345Z,34.05
2022-12-31T13:38:58.479Z,34.17
2022-12-31T13:41:39.959Z,34.16
2022-12-31T13:44:40.139Z,34.44
2022-12-31T13:47:46.800Z,33.91
2022-12-31T13:50:33.780Z,34.83
2022-12-31T13:53:17.898Z,35.04
2022-12-31T13:56:06.581Z,36.90
2022-12-31T13:58:53.213Z,35.76
2022-12-31T14:01:56.316Z,35.66
2022-12-31T14:04:41.915Z,36.04
2022-12-31T14:07:22.991Z,35.71
2022-12-31T14:09:50.350Z,35.51
2022-12-31T14:13:15.677Z,35.46
2022-12-31T14:16:04.909Z,36.10
2022-12-31T14:18:58.004Z,36.62
2022-12-31T14:22:01.485Z,36.06
2022-12-31T14:25:01.313Z,36.86
2022-12-31T14:27:41.551Z,36.73
2022-12-31T14:30:22.976Z,36.57
2022-12-31T14:33:26.800Z,37.04
2022-12-31T14:36:22.489Z,37.58
2022-12-31T14:39:39.635Z,38.16
2022-12-31T14:42:39.102Z,38.53
2022-12-31T14:46:04.456Z,38.44
2022-12-31T14:49:13.610Z,38.72
2022-12-31T14:51:41.593Z,39.03
2022-12-31T14:54:36.876Z,39.34
2022-12-31T14:57:24.370Z,38.87
2022-12-31T14:59:58.961Z,39.39
2022-12-31T15:02:35.371Z,39.40
2022-12-31T15:05:21.570Z,39.87
2022-12-31T15:08:14.985Z,40.23
2022-12-31T15:11:34.015Z,41.29
2022-12-31T15:14:51.014Z,42.09
2022-12-31T15:18:13.796Z,40.81
2022-12-31T15:21:04.695Z,40.61
2022-12-31T15:23:40.024Z,40.98
2022-12-31T15:26:23.354Z,41.89
2022-12-31T15:29:24.302Z,41.73
2022-12-31T15:31:52.654Z,41.49
2022-12-31T15:34:34.928Z,41.63
2022-12-31T15:37:06.834Z,40.80
2022-12-31T15:39:43.442Z,41.26
2022-12-31T15:42:50.188Z,41.02
2022-12-31T15:45:40.885Z,41.80
2022-12-31T15:48:32.578Z,42.99
2022-12-31T15:51:02.396Z,41.86
2022-12-31T15:53:55.272Z,41.49
2022-12-31T15:56:49.037Z,41.64
2022-12-31T15:59:21.964Z,42.51
2022-12-31T16:01:49.899Z,41.95
2022-12-31T16:04:20.917Z,42.10
2022-12-31T16:06:51.171Z,41.90
2022-12-31T16:09:34.333Z,42.94
2022-12-31T16:12:12.301Z,42.97
2022-12-31T16:14:50.831Z,44.03
2022-12-31T16:17:39.731Z,44.29
2022-12-31T16:20:31.460Z,44.55
2022-12-31T16:23:03.219Z,43.46
2022-12-31T16:25:33.514Z,44.32
2022-12-31T16:28:03.780Z,43.74
2022-12-31T16:30:35.774Z,44.04
2022-12-31T16:33:10.185Z,44.26
2022-12-31T16:35:37.985Z,44.40
2022-12-31T16:38:19.411Z,44.84
2022-12-31T16:41:24.209Z,45.07
2022-12-31T16:43:52.026Z,46.15
2022-12-31T16:46:30.636Z,47.08
2022-12-31T16:49:20.438Z,47.93
2022-12-31T16:51:49.711Z,48.92
2022-12-31T16:54:30.267Z,49.13
2022-12-31T16:57:00.164Z,49.86
2022-12-31T16:59:44.505Z,50.09
2022-12-31T17:02:35.133Z,50.63
2022-12-31T17:05:05.455Z,50.95
2022-12-31T17:07:36.681Z,51.16
2022-12-31T17:10:07.081Z,52.19
2022-12-31T17:13:25.529Z,52.75
2022-12-31T17:15:44.680Z,52.62
2022-12-31T17:18:24.046Z,53.31
2022-12-31T17:20:54.966Z,53.21
2022-12-31T17:23:32.593Z,53.49
2022-12-31T17:26:13.737Z,53.62
2022-12-31T17:28:48.796Z,54.13
2022-12-31T17:31:40.464Z,54.89
2022-12-31T17:34:13.983Z,55.29
2022-12-31T17:37:18.359Z,55.04
2022-12-31T17:40:24.479Z,55.47
2022-12-31T17:42:48.747Z,54.76
2022-12-31T17:45:22.364Z,55.04
2022-12-31T17:47:53.746Z,54.59
2022-12-31T17:50:26.793Z,54.80
2022-12-31T17:53:12.243Z,54.97
2022-12-31T17:55:51.840Z,54.54
2022-12-31T17:58:33.208Z,54.99
2022-12-31T18:01:02.209Z,55.10
2022-12-31T18:03:29.556Z,55.62
2022-12-31T18:05:57.098Z,54.36
2022-12-31T18:08:24.815Z,55.20
2022-12-31T18:10:54.498Z,56.10
2022-12-31T18:13:26.260Z,57.30
2022-12-31T18:15:54.879Z,57.51
2022-12-31T18:18:25.873Z,57.30
2022-12-31T18:21:09.236Z,56.79
2022-12-31T18:23:48.782Z,56.73
2022-12-31T18:26:21.142Z,56.76
2022-12-31T18:28:50.744Z,57.56
2022-12-31T18:31:26.205Z,57.54
2022-12-31T18:33:56.933Z,57.16
2022-12-31T18:36:28.908Z,57.76
2022-12-31T18:39:21.289Z,59.56
2022-12-31T18:41:49.603Z,59.82
2022-12-31T18:44:18.009Z,59.42
2022-12-31T18:46:45.561Z,59.67
2022-12-31T18:49:12.824Z,59.53
2022-12-31T18:51:40.415Z,59.11
2022-12-31T18:54:12.377Z,59.02
2022-12-31T18:56:46.532Z,59.49
2022-12-31T18:59:15.354Z,59.66
2022-12-31T19:01:43.277Z,59.82
2022-12-31T19:04:27.128Z,59.71
2022-12-31T19:06:56.555Z,59.30
2022-12-31T19:09:44.541Z,59.55
2022-12-31T19:12:15.488Z,59.82
2022-12-31T19:14:44.162Z,60.21
2022-12-31T19:17:11.551Z,60.13
2022-12-31T19:19:38.913Z,60.16
2022-12-31T19:22:06.617Z,60.53
2022-12-31T19:24:34.228Z,60.79
2022-12-31T19:27:02.333Z,60.98
2022-12-31T19:29:30.922Z,61.11
2022-12-31T19:32:01.009Z,62.12
2022-12-31T19:34:28.476Z,61.69
2022-12-31T19:36:56.038Z,62.70
2022-12-31T19:39:23.502Z,62.54
2022-12-31T19:41:58.504Z,62.48
2022-12-31T19:44:26.904Z,62.91
2022-12-31T19:46:54.376Z,62.65
2022-12-31T19:49:21.687Z,62.51
2022-12-31T19:51:49.068Z,62.28
2022-12-31T19:54:16.371Z,62.82
2022-12-31T19:56:43.805Z,63.53
2022-12-31T19:59:11.864Z,61.56
2022-12-31T20:01:39.484Z,60.26
2022-12-31T20:04:06.993Z,61.14
2022-12-31T20:06:34.590Z,61.18
2022-12-31T20:09:03.505Z,60.67
2022-12-31T20:11:31.830Z,59.36
2022-12-31T20:13:59.533Z,60.21
2022-12-31T20:16:27.207Z,60.87
2022-12-31T20:18:54.917Z,60.89
2022-12-31T20:21:27.564Z,61.31
2022-12-31T20:24:02.426Z,60.05
2022-12-31T20:26:30.274Z,61.29
2022-12-31T20:28:58.315Z,62.88
2022-12-31T20:31:26.539Z,61.37
2022-12-31T20:33:55.284Z,61.84
2022-12-31T20:36:30.059Z,62.01
2022-12-31T20:39:07.807Z,61.14
2022-12-31T20:41:35.471Z,62.08
2022-12-31T20:44:06.687Z,61.19
2022-12-31T20:46:34.842Z,60.47
2022-12-31T20:49:04.847Z,61.34
2022-12-31T20:52:25.270Z,61.44
2022-12-31T20:54:50.490Z,60.05
2022-12-31T20:57:21.147Z,60.43
2022-12-31T20:59:51.565Z,60.26
2022-12-31T21:02:29.503Z,58.25
2022-12-31T21:05:13.620Z,58.81
2022-12-31T21:07:58.910Z,59.90
2022-12-31T21:10:59.307Z,61.58
2022-12-31T21:13:35.853Z,62.37
2022-12-31T21:16:12.061Z,62.59
2022-12-31T21:18:39.915Z,62.04
2022-12-31T21:21:07.600Z,62.16
2022-12-31T21:23:39.343Z,61.62
2022-12-31T21:26:16.234Z,62.43
2022-12-31T21:28:44.146Z,62.58
2022-12-31T21:31:17.350Z,61.63
2022-12-31T21:33:49.487Z,61.09
2022-12-31T21:36:17.487Z,61.23
2022-12-31T21:38:45.326Z,62.84
2022-12-31T21:41:34.783Z,62.64
2022-12-31T21:44:03.798Z,62.69
2022-12-31T21:46:31.716Z,62.83
2022-12-31T21:49:01.975Z,61.93
2022-12-31T21:51:30.085Z,62.52
2022-12-31T21:53:58.275Z,62.89
2022-12-31T21:56:26.067Z,62.89
2022-12-31T21:59:17.419Z,62.91
2022-12-31T22:02:03.635Z,62.96
2022-12-31T22:07:18.327Z,63.54
2022-12-31T22:09:45.785Z,64.54
2022-12-31T22:12:13.100Z,63.71
2022-12-31T22:15:15.557Z,62.59
2022-12-31T22:17:31.451Z,63.01
2022-12-31T22:22:46.486Z,63.29
2022-12-31T22:25:16.081Z,63.94
2022-12-31T22:27:53.075Z,63.94
2022-12-31T22:30:31.402Z,64.49
2022-12-31T22:32:59.587Z,66.24
2022-12-31T22:35:26.961Z,64.96
2022-12-31T22:37:57.875Z,64.50
2022-12-31T22:40:26.544Z,64.54
2022-12-31T22:42:55.630Z,65.01
2022-12-31T22:45:23.083Z,65.29
2022-12-31T22:47:50.502Z,66.25
2022-12-31T22:50:18.746Z,65.92
2022-12-31T22:52:47.446Z,65.91
2022-12-31T22:55:19.423Z,65.17
2022-12-31T22:57:47.225Z,64.95
2022-12-31T23:00:15.828Z,64.51
2022-12-31T23:02:45.369Z,64.30
2022-12-31T23:05:16.272Z,63.19
2022-12-31T23:07:44.311Z,63.99
2022-12-31T23:10:31.529Z,63.25
2022-12-31T23:13:19.618Z,64.37
2022-12-31T23:16:05.838Z,64.86
2022-12-31T23:18:52.007Z,64.65
2022-12-31T23:21:38.247Z,64.70
2022-12-31T23:24:18.216Z,64.26
2022-12-31T23:26:49.002Z,63.97
2022-12-31T23:29:16.585Z,63.88
2022-12-31T23:31:44.014Z,62.99
2022-12-31T23:34:11.594Z,63.25
2022-12-31T23:36:39.259Z,63.76
2022-12-31T23:39:10.570Z,64.27
2022-12-31T23:41:38.203Z,63.94
2022-12-31T23:44:06.025Z,64.44
2022-12-31T23:46:33.559Z,64.30
2022-12-31T23:49:00.999Z,64.49
2022-12-31T23:51:28.705Z,64.46
2022-12-31T23:53:56.155Z,64.55
2022-12-31T23:56:24.237Z,64.80
2022-12-31T23:58:59.991Z,65.10
